sensor_id;sensor_type;location;lat;lon;timestamp;temperature;humidity
53645;DHT22;39547;45.554;12.068;2022-10-16T00:01:12;17.80;79.50
53645;DHT22;39547;45.554;12.068;2022-10-16T00:07:14;17.80;79.50
53645;DHT22;39547;45.554;12.068;2022-10-16T00:13:15;17.90;79.50
53645;DHT22;39547;45.554;12.068;2022-10-16T00:19:18;17.90;79.50
53645;DHT22;39547;45.554;12.068;2022-10-16T00:25:19;17.90;79.50
53645;DHT22;39547;45.554;12.068;2022-10-16T00:31:22;17.90;79.50
53645;DHT22;39547;45.554;12.068;2022-10-16T00:37:24;17.90;79.50
53645;DHT22;39547;45.554;12.068;2022-10-16T00:43:49;17.90;79.60
53645;DHT22;39547;45.554;12.068;2022-10-16T00:49:56;17.90;79.60
53645;DHT22;39547;45.554;12.068;2022-10-16T00:55:59;17.90;79.70
53645;DHT22;39547;45.554;12.068;2022-10-16T01:02:01;17.90;79.80
53645;DHT22;39547;45.554;12.068;2022-10-16T01:14:53;17.80;79.90
53645;DHT22;39547;45.554;12.068;2022-10-16T01:21:15;17.80;80.10
53645;DHT22;39547;45.554;12.068;2022-10-16T01:33:56;17.80;80.10
53645;DHT22;39547;45.554;12.068;2022-10-16T01:39:38;17.80;80.40
53645;DHT22;39547;45.554;12.068;2022-10-16T01:45:41;17.70;80.40
53645;DHT22;39547;45.554;12.068;2022-10-16T01:51:47;17.70;80.70
53645;DHT22;39547;45.554;12.068;2022-10-16T01:57:50;17.70;81.10
53645;DHT22;39547;45.554;12.068;2022-10-16T02:03:54;17.70;81.20
53645;DHT22;39547;45.554;12.068;2022-10-16T02:09:58;17.60;81.30
53645;DHT22;39547;45.554;12.068;2022-10-16T02:16:00;17.70;81.40
53645;DHT22;39547;45.554;12.068;2022-10-16T02:22:04;17.60;81.60
53645;DHT22;39547;45.554;12.068;2022-10-16T02:28:17;17.50;81.40
53645;DHT22;39547;45.554;12.068;2022-10-16T02:34:21;17.50;81.40
53645;DHT22;39547;45.554;12.068;2022-10-16T02:40:24;17.50;81.40
53645;DHT22;39547;45.554;12.068;2022-10-16T02:46:25;17.60;81.40
53645;DHT22;39547;45.554;12.068;2022-10-16T02:52:27;17.60;81.40
53645;DHT22;39547;45.554;12.068;2022-10-16T02:58:28;17.60;81.30
53645;DHT22;39547;45.554;12.068;2022-10-16T03:04:30;17.60;81.30
53645;DHT22;39547;45.554;12.068;2022-10-16T03:10:31;17.60;81.30
53645;DHT22;39547;45.554;12.068;2022-10-16T03:16:33;17.60;81.60
53645;DHT22;39547;45.554;12.068;2022-10-16T03:22:34;17.60;81.70
53645;DHT22;39547;45.554;12.068;2022-10-16T03:28:36;17.50;81.60
53645;DHT22;39547;45.554;12.068;2022-10-16T03:34:37;17.50;81.60
53645;DHT22;39547;45.554;12.068;2022-10-16T03:40:39;17.50;81.60
53645;DHT22;39547;45.554;12.068;2022-10-16T03:46:40;17.50;81.50
53645;DHT22;39547;45.554;12.068;2022-10-16T03:52:42;17.50;81.60
53645;DHT22;39547;45.554;12.068;2022-10-16T03:58:43;17.50;81.60
53645;DHT22;39547;45.554;12.068;2022-10-16T04:04:44;17.40;81.60
53645;DHT22;39547;45.554;12.068;2022-10-16T04:10:46;17.30;81.60
53645;DHT22;39547;45.554;12.068;2022-10-16T04:16:47;17.30;81.70
53645;DHT22;39547;45.554;12.068;2022-10-16T04:22:49;17.20;81.70
53645;DHT22;39547;45.554;12.068;2022-10-16T04:28:50;17.10;81.80
53645;DHT22;39547;45.554;12.068;2022-10-16T04:34:52;17.10;81.80
53645;DHT22;39547;45.554;12.068;2022-10-16T04:40:53;17.00;81.90
53645;DHT22;39547;45.554;12.068;2022-10-16T04:46:55;16.90;81.90
53645;DHT22;39547;45.554;12.068;2022-10-16T04:52:56;16.80;81.90
53645;DHT22;39547;45.554;12.068;2022-10-16T04:58:58;16.80;82.00
53645;DHT22;39547;45.554;12.068;2022-10-16T05:04:59;16.80;82.10
53645;DHT22;39547;45.554;12.068;2022-10-16T05:11:01;16.70;82.10
53645;DHT22;39547;45.554;12.068;2022-10-16T05:17:03;16.60;82.30
53645;DHT22;39547;45.554;12.068;2022-10-16T05:23:04;16.60;82.30
53645;DHT22;39547;45.554;12.068;2022-10-16T05:29:06;16.50;82.30
53645;DHT22;39547;45.554;12.068;2022-10-16T05:35:07;16.50;82.30
53645;DHT22;39547;45.554;12.068;2022-10-16T05:41:09;16.50;82.30
53645;DHT22;39547;45.554;12.068;2022-10-16T05:47:12;16.40;82.30
53645;DHT22;39547;45.554;12.068;2022-10-16T05:53:15;16.40;82.30
53645;DHT22;39547;45.554;12.068;2022-10-16T05:59:17;16.30;82.40
53645;DHT22;39547;45.554;12.068;2022-10-16T06:05:18;16.30;82.50
53645;DHT22;39547;45.554;12.068;2022-10-16T06:11:25;16.30;82.50
53645;DHT22;39547;45.554;12.068;2022-10-16T06:17:27;16.20;82.50
53645;DHT22;39547;45.554;12.068;2022-10-16T06:23:29;16.20;82.40
53645;DHT22;39547;45.554;12.068;2022-10-16T06:29:30;16.20;82.50
53645;DHT22;39547;45.554;12.068;2022-10-16T06:35:32;16.30;82.50
53645;DHT22;39547;45.554;12.068;2022-10-16T06:41:33;16.30;82.40
53645;DHT22;39547;45.554;12.068;2022-10-16T06:47:45;16.40;82.40
53645;DHT22;39547;45.554;12.068;2022-10-16T06:53:49;16.50;82.40
53645;DHT22;39547;45.554;12.068;2022-10-16T06:59:51;16.60;82.30
53645;DHT22;39547;45.554;12.068;2022-10-16T07:05:52;16.60;82.30
53645;DHT22;39547;45.554;12.068;2022-10-16T07:11:54;16.70;82.30
53645;DHT22;39547;45.554;12.068;2022-10-16T07:17:55;16.80;82.20
53645;DHT22;39547;45.554;12.068;2022-10-16T07:23:59;16.90;82.00
53645;DHT22;39547;45.554;12.068;2022-10-16T07:30:02;17.10;81.80
53645;DHT22;39547;45.554;12.068;2022-10-16T07:36:04;17.20;81.70
53645;DHT22;39547;45.554;12.068;2022-10-16T07:42:06;17.40;81.50
53645;DHT22;39547;45.554;12.068;2022-10-16T07:48:08;17.50;81.30
53645;DHT22;39547;45.554;12.068;2022-10-16T07:54:10;17.70;81.10
53645;DHT22;39547;45.554;12.068;2022-10-16T08:00:12;17.80;81.00
53645;DHT22;39547;45.554;12.068;2022-10-16T08:06:15;17.90;80.80
53645;DHT22;39547;45.554;12.068;2022-10-16T08:12:17;18.10;80.90
53645;DHT22;39547;45.554;12.068;2022-10-16T08:18:19;18.30;80.70
53645;DHT22;39547;45.554;12.068;2022-10-16T08:24:20;18.50;80.50
53645;DHT22;39547;45.554;12.068;2022-10-16T08:30:24;18.70;80.30
53645;DHT22;39547;45.554;12.068;2022-10-16T08:36:25;18.70;80.10
53645;DHT22;39547;45.554;12.068;2022-10-16T08:48:51;18.80;80.00
53645;DHT22;39547;45.554;12.068;2022-10-16T08:54:55;19.10;80.00
53645;DHT22;39547;45.554;12.068;2022-10-16T09:01:00;19.30;79.60
53645;DHT22;39547;45.554;12.068;2022-10-16T09:07:09;19.50;79.20
53645;DHT22;39547;45.554;12.068;2022-10-16T09:13:23;19.70;78.90
53645;DHT22;39547;45.554;12.068;2022-10-16T09:19:35;19.80;78.80
53645;DHT22;39547;45.554;12.068;2022-10-16T09:25:41;20.00;78.70
53645;DHT22;39547;45.554;12.068;2022-10-16T09:31:44;20.20;78.50
53645;DHT22;39547;45.554;12.068;2022-10-16T09:37:48;20.50;77.80
53645;DHT22;39547;45.554;12.068;2022-10-16T09:43:56;20.60;77.70
53645;DHT22;39547;45.554;12.068;2022-10-16T09:50:04;20.70;77.50
53645;DHT22;39547;45.554;12.068;2022-10-16T09:56:09;20.70;77.40
53645;DHT22;39547;45.554;12.068;2022-10-16T10:02:14;20.90;77.10
53645;DHT22;39547;45.554;12.068;2022-10-16T10:08:17;21.20;76.70
53645;DHT22;39547;45.554;12.068;2022-10-16T10:20:36;20.90;76.90
53645;DHT22;39547;45.554;12.068;2022-10-16T10:26:47;21.20;77.10
53645;DHT22;39547;45.554;12.068;2022-10-16T10:39:20;21.80;75.20
53645;DHT22;39547;45.554;12.068;2022-10-16T10:45:27;22.00;74.70
53645;DHT22;39547;45.554;12.068;2022-10-16T10:51:36;21.90;74.90
53645;DHT22;39547;45.554;12.068;2022-10-16T10:58:12;22.00;73.90
53645;DHT22;39547;45.554;12.068;2022-10-16T11:04:57;22.10;74.10
53645;DHT22;39547;45.554;12.068;2022-10-16T11:11:25;22.00;74.10
53645;DHT22;39547;45.554;12.068;2022-10-16T11:17:33;22.30;74.00
53645;DHT22;39547;45.554;12.068;2022-10-16T11:23:55;22.60;73.30
53645;DHT22;39547;45.554;12.068;2022-10-16T11:30:02;22.70;73.10
53645;DHT22;39547;45.554;12.068;2022-10-16T11:36:26;22.70;73.20
53645;DHT22;39547;45.554;12.068;2022-10-16T11:42:44;22.50;72.60
53645;DHT22;39547;45.554;12.068;2022-10-16T11:49:17;22.50;73.30
53645;DHT22;39547;45.554;12.068;2022-10-16T11:55:24;22.30;73.60
53645;DHT22;39547;45.554;12.068;2022-10-16T12:01:45;22.20;74.00
53645;DHT22;39547;45.554;12.068;2022-10-16T12:07:57;22.20;74.30
53645;DHT22;39547;45.554;12.068;2022-10-16T12:14:07;22.40;74.30
53645;DHT22;39547;45.554;12.068;2022-10-16T12:26:13;23.50;71.90
53645;DHT22;39547;45.554;12.068;2022-10-16T12:32:33;23.80;69.40
53645;DHT22;39547;45.554;12.068;2022-10-16T12:38:45;23.80;68.60
53645;DHT22;39547;45.554;12.068;2022-10-16T12:44:47;23.90;69.40
53645;DHT22;39547;45.554;12.068;2022-10-16T12:50:49;24.20;68.80
53645;DHT22;39547;45.554;12.068;2022-10-16T13:22:02;23.20;70.20
53645;DHT22;39547;45.554;12.068;2022-10-16T13:28:08;22.90;70.90
53645;DHT22;39547;45.554;12.068;2022-10-16T13:34:20;22.80;71.30
53645;DHT22;39547;45.554;12.068;2022-10-16T13:40:24;22.70;71.50
53645;DHT22;39547;45.554;12.068;2022-10-16T13:46:26;22.60;71.70
53645;DHT22;39547;45.554;12.068;2022-10-16T13:52:27;22.40;71.90
53645;DHT22;39547;45.554;12.068;2022-10-16T13:58:29;22.40;72.10
53645;DHT22;39547;45.554;12.068;2022-10-16T14:04:32;22.70;72.00
53645;DHT22;39547;45.554;12.068;2022-10-16T14:10:34;22.80;71.80
53645;DHT22;39547;45.554;12.068;2022-10-16T14:16:36;22.80;71.80
53645;DHT22;39547;45.554;12.068;2022-10-16T14:22:42;22.80;71.70
53645;DHT22;39547;45.554;12.068;2022-10-16T14:28:44;22.80;71.70
53645;DHT22;39547;45.554;12.068;2022-10-16T14:34:53;22.90;71.60
53645;DHT22;39547;45.554;12.068;2022-10-16T14:40:57;22.90;71.40
53645;DHT22;39547;45.554;12.068;2022-10-16T14:47:29;22.70;71.50
53645;DHT22;39547;45.554;12.068;2022-10-16T14:53:30;22.60;71.90
53645;DHT22;39547;45.554;12.068;2022-10-16T14:59:38;22.50;72.30
53645;DHT22;39547;45.554;12.068;2022-10-16T15:05:40;22.30;72.50
53645;DHT22;39547;45.554;12.068;2022-10-16T15:11:42;22.30;72.70
53645;DHT22;39547;45.554;12.068;2022-10-16T15:17:43;22.20;72.90
53645;DHT22;39547;45.554;12.068;2022-10-16T15:23:45;22.10;73.20
53645;DHT22;39547;45.554;12.068;2022-10-16T15:29:47;21.90;73.40
53645;DHT22;39547;45.554;12.068;2022-10-16T15:35:50;21.70;73.70
53645;DHT22;39547;45.554;12.068;2022-10-16T15:41:52;21.50;74.10
53645;DHT22;39547;45.554;12.068;2022-10-16T15:47:54;21.30;74.30
53645;DHT22;39547;45.554;12.068;2022-10-16T15:53:56;21.20;74.70
53645;DHT22;39547;45.554;12.068;2022-10-16T15:59:58;21.00;74.80
53645;DHT22;39547;45.554;12.068;2022-10-16T16:06:04;20.80;75.10
53645;DHT22;39547;45.554;12.068;2022-10-16T16:12:06;20.60;75.40
53645;DHT22;39547;45.554;12.068;2022-10-16T16:18:08;20.40;75.70
53645;DHT22;39547;45.554;12.068;2022-10-16T16:24:10;20.20;76.10
53645;DHT22;39547;45.554;12.068;2022-10-16T16:30:12;20.00;76.40
53645;DHT22;39547;45.554;12.068;2022-10-16T16:36:13;19.90;76.50
53645;DHT22;39547;45.554;12.068;2022-10-16T16:42:15;19.80;76.70
53645;DHT22;39547;45.554;12.068;2022-10-16T16:48:17;19.70;76.90
53645;DHT22;39547;45.554;12.068;2022-10-16T16:54:19;19.60;77.10
53645;DHT22;39547;45.554;12.068;2022-10-16T17:00:21;19.50;77.20
53645;DHT22;39547;45.554;12.068;2022-10-16T17:06:25;19.40;77.40
53645;DHT22;39547;45.554;12.068;2022-10-16T17:12:29;19.30;77.60
53645;DHT22;39547;45.554;12.068;2022-10-16T17:18:32;19.30;77.70
53645;DHT22;39547;45.554;12.068;2022-10-16T17:24:34;19.20;77.80
53645;DHT22;39547;45.554;12.068;2022-10-16T17:30:36;19.20;77.90
53645;DHT22;39547;45.554;12.068;2022-10-16T17:36:39;19.20;78.00
53645;DHT22;39547;45.554;12.068;2022-10-16T17:42:47;19.10;78.10
53645;DHT22;39547;45.554;12.068;2022-10-16T17:48:51;19.10;78.30
53645;DHT22;39547;45.554;12.068;2022-10-16T17:54:55;19.00;78.50
53645;DHT22;39547;45.554;12.068;2022-10-16T18:00:58;18.90;78.80
53645;DHT22;39547;45.554;12.068;2022-10-16T18:06:59;18.80;79.00
53645;DHT22;39547;45.554;12.068;2022-10-16T18:13:02;18.80;79.30
53645;DHT22;39547;45.554;12.068;2022-10-16T18:19:03;18.70;79.50
53645;DHT22;39547;45.554;12.068;2022-10-16T18:25:06;18.70;79.70
53645;DHT22;39547;45.554;12.068;2022-10-16T18:31:12;18.60;79.80
53645;DHT22;39547;45.554;12.068;2022-10-16T18:37:13;18.60;80.20
53645;DHT22;39547;45.554;12.068;2022-10-16T18:43:16;18.50;80.30
53645;DHT22;39547;45.554;12.068;2022-10-16T18:49:19;18.40;80.60
53645;DHT22;39547;45.554;12.068;2022-10-16T18:55:20;18.30;80.70
53645;DHT22;39547;45.554;12.068;2022-10-16T19:01:23;18.20;80.90
53645;DHT22;39547;45.554;12.068;2022-10-16T19:07:25;18.20;81.10
53645;DHT22;39547;45.554;12.068;2022-10-16T19:13:27;18.20;81.30
53645;DHT22;39547;45.554;12.068;2022-10-16T19:19:29;18.00;81.50
53645;DHT22;39547;45.554;12.068;2022-10-16T19:25:30;18.00;81.60
53645;DHT22;39547;45.554;12.068;2022-10-16T19:31:31;17.90;81.70
53645;DHT22;39547;45.554;12.068;2022-10-16T19:37:35;17.90;81.80
53645;DHT22;39547;45.554;12.068;2022-10-16T19:43:37;17.80;82.00
53645;DHT22;39547;45.554;12.068;2022-10-16T19:49:38;17.80;82.00
53645;DHT22;39547;45.554;12.068;2022-10-16T19:55:40;17.70;82.20
53645;DHT22;39547;45.554;12.068;2022-10-16T20:01:42;17.70;82.20
53645;DHT22;39547;45.554;12.068;2022-10-16T20:07:43;17.70;82.30
53645;DHT22;39547;45.554;12.068;2022-10-16T20:13:45;17.70;82.40
53645;DHT22;39547;45.554;12.068;2022-10-16T20:19:46;17.60;82.60
53645;DHT22;39547;45.554;12.068;2022-10-16T20:25:48;17.50;82.60
53645;DHT22;39547;45.554;12.068;2022-10-16T20:31:50;17.50;82.70
53645;DHT22;39547;45.554;12.068;2022-10-16T20:37:51;17.40;83.10
53645;DHT22;39547;45.554;12.068;2022-10-16T20:43:53;17.30;83.20
53645;DHT22;39547;45.554;12.068;2022-10-16T20:49:55;17.30;83.20
53645;DHT22;39547;45.554;12.068;2022-10-16T20:56:00;17.30;83.30
53645;DHT22;39547;45.554;12.068;2022-10-16T21:02:01;17.20;83.50
53645;DHT22;39547;45.554;12.068;2022-10-16T21:08:03;17.20;83.50
53645;DHT22;39547;45.554;12.068;2022-10-16T21:14:06;17.20;83.60
53645;DHT22;39547;45.554;12.068;2022-10-16T21:20:08;17.20;83.70
53645;DHT22;39547;45.554;12.068;2022-10-16T21:26:10;17.10;84.00
53645;DHT22;39547;45.554;12.068;2022-10-16T21:32:11;17.10;84.00
53645;DHT22;39547;45.554;12.068;2022-10-16T21:38:13;17.00;84.10
53645;DHT22;39547;45.554;12.068;2022-10-16T21:44:16;17.00;84.00
53645;DHT22;39547;45.554;12.068;2022-10-16T21:50:17;17.00;84.00
53645;DHT22;39547;45.554;12.068;2022-10-16T21:56:18;17.00;84.00
53645;DHT22;39547;45.554;12.068;2022-10-16T22:02:20;17.00;84.00
53645;DHT22;39547;45.554;12.068;2022-10-16T22:08:22;16.90;84.00
53645;DHT22;39547;45.554;12.068;2022-10-16T22:14:23;16.90;84.00
53645;DHT22;39547;45.554;12.068;2022-10-16T22:20:25;16.90;84.00
53645;DHT22;39547;45.554;12.068;2022-10-16T22:26:26;16.90;84.00
53645;DHT22;39547;45.554;12.068;2022-10-16T22:32:27;16.80;84.10
53645;DHT22;39547;45.554;12.068;2022-10-16T22:38:30;16.70;84.20
53645;DHT22;39547;45.554;12.068;2022-10-16T22:44:32;16.70;84.40
53645;DHT22;39547;45.554;12.068;2022-10-16T22:50:33;16.60;84.40
53645;DHT22;39547;45.554;12.068;2022-10-16T22:56:34;16.60;84.50
53645;DHT22;39547;45.554;12.068;2022-10-16T23:02:36;16.50;84.60
53645;DHT22;39547;45.554;12.068;2022-10-16T23:08:37;16.50;84.70
53645;DHT22;39547;45.554;12.068;2022-10-16T23:14:39;16.70;84.70
53645;DHT22;39547;45.554;12.068;2022-10-16T23:20:40;16.70;84.50
53645;DHT22;39547;45.554;12.068;2022-10-16T23:26:42;16.80;84.50
53645;DHT22;39547;45.554;12.068;2022-10-16T23:32:43;16.90;84.40
53645;DHT22;39547;45.554;12.068;2022-10-16T23:38:45;16.90;84.40
53645;DHT22;39547;45.554;12.068;2022-10-16T23:44:47;17.00;84.40
53645;DHT22;39547;45.554;12.068;2022-10-16T23:50:48;17.00;84.40
53645;DHT22;39547;45.554;12.068;2022-10-16T23:56:50;17.10;84.50
